Impacts METAR Board INFO
IDs:

KCLT - Charlotte/Douglas In, NC, US

Updated at: 2034 UTC 22 Feb 2018
Potential Impact None Slight Moderate High
Time22/08Z 22/09Z 22/10Z 22/11Z 22/12Z 22/13Z 22/14Z 22/15Z 22/16Z 22/17Z 22/18Z 22/19Z 22/20Z
VIS10 10 10 10 10 10 10 10 10 10 10 10 10
CIG-- 8 8 13 13 14 15 13 13 15 18 25 46
CoverFEWBKNBKNOVCOVCOVCOVCOVCOVCBKNBKNBKNBKN
FltCatVFRIFRIFRMVFRMVFRMVFRMVFRMVFRMVFRMVFRMVFRMVFRVFR
WX--------------------------
WDir180180210190200210220210240210220210200
WSpd8 8 6 6 13 9 8 11 7 9 9 9 12
WGst-- -- -- -- 18 17 -- -- -- -- -- -- --
Raw hourly METARs
KCLT 220752Z 18008KT 10SM FEW040 18/18 A3042 RMK AO2 SLP294 T01780178
KCLT 220852Z 18008KT 10SM BKN008 18/18 A3041 RMK AO2 SLP290 T01830178 58004
KCLT 220952Z 21006KT 10SM BKN008 18/18 A3042 RMK AO2 SLP295 T01830178
KCLT 221052Z 19006KT 10SM OVC013 18/18 A3043 RMK AO2 SLP299 T01830178
KCLT 221152Z 20013G18KT 10SM OVC013 19/18 A3044 RMK AO2 SLP302 T01890178 10189 20172 51011
KCLT 221252Z 21009G17KT 10SM OVC014 19/18 A3046 RMK AO2 SLP310 T01890178
KCLT 221352Z 22008KT 10SM OVC015 19/18 A3048 RMK AO2 SLP316 T01940178
KCLT 221452Z 21011KT 10SM BKN013 OVC017 20/18 A3048 RMK AO2 SLP316 T02000178 51013
KCLT 221552Z 24007KT 10SM BKN013 OVC017 21/18 A3049 RMK AO2 SLP317 T02110178
KCLT 221652Z 21009KT 10SM BKN015 BKN018 22/18 A3047 RMK AO2 SLP312 T02170178
KCLT 221752Z 22009KT 10SM BKN018 BKN022 23/18 A3045 RMK AO2 SLP304 T02330178 10233 20189 58012
KCLT 221852Z 21009KT 190V270 10SM BKN025 BKN250 24/17 A3042 RMK AO2 SLP293 T02440172
KCLT 221952Z 20012KT 10SM SCT035 BKN046 26/17 A3038 RMK AO2 SLP282 T02610172